Time;durP1;ratioP1;P1;durP2;ratioP2;P2;SDS_P1;SDS_P2;PMS_P1;PMS_P2;Temp;Humidity;BMP_temperature;BMP_pressure;BME280_temperature;BME280_humidity;BME280_pressure;Samples;Min_cycle;Max_cycle;Signal;HPM_P1;HPM_P2
2023/06/11 00:01:16;;;;;;;;;11.50;10.75;26.50;51.70;;;;;;111337;1244;49541;-64
2023/06/11 00:04:02;;;;;;;;;12.00;11.00;26.50;51.70;;;;;;111212;1243;50184;-64
2023/06/11 00:06:30;;;;;;;;;12.00;11.00;26.50;51.60;;;;;;111220;1244;53603;-65
2023/06/11 00:08:57;;;;;;;;;12.75;11.75;26.50;51.70;;;;;;111275;1244;45260;-65
2023/06/11 00:11:25;;;;;;;;;12.00;11.00;26.50;51.60;;;;;;111320;1245;50471;-64
2023/06/11 00:13:53;;;;;;;;;12.25;11.25;26.50;51.60;;;;;;111224;1243;49102;-65
2023/06/11 00:16:20;;;;;;;;;14.00;13.00;26.50;51.70;;;;;;111413;1239;53898;-66
2023/06/11 00:18:47;;;;;;;;;11.00;10.00;26.50;51.30;;;;;;111448;1243;44998;-65
2023/06/11 00:21:15;;;;;;;;;13.25;12.00;26.50;51.70;;;;;;111404;1238;48788;-65
2023/06/11 00:23:42;;;;;;;;;13.00;12.00;26.50;51.90;;;;;;111186;1238;49466;-66
2023/06/11 00:26:09;;;;;;;;;12.00;11.00;26.50;51.70;;;;;;111275;1243;53533;-65
2023/06/11 00:28:36;;;;;;;;;12.00;11.00;26.50;51.80;;;;;;111403;1238;44547;-65
2023/06/11 00:31:03;;;;;;;;;12.33;11.33;26.50;51.70;;;;;;111375;1240;49077;-65
2023/06/11 00:33:30;;;;;;;;;11.75;10.50;26.50;51.70;;;;;;111114;1243;49939;-65
2023/06/11 00:35:58;;;;;;;;;12.75;12.00;26.50;51.70;;;;;;111211;1243;53617;-65
2023/06/11 00:38:25;;;;;;;;;11.75;10.75;26.50;51.80;;;;;;111203;1243;44181;-65
2023/06/11 00:40:52;;;;;;;;;12.00;11.00;26.50;51.70;;;;;;111326;1238;49891;-64
2023/06/11 00:43:21;;;;;;;;;12.00;11.00;26.50;51.70;;;;;;111456;1238;49042;-66
2023/06/11 00:45:50;;;;;;;;;13.00;12.00;26.50;51.70;;;;;;111446;1237;54382;-64
2023/06/11 00:48:21;;;;;;;;;12.00;10.75;26.40;51.70;;;;;;111508;1241;44389;-64
2023/06/11 00:50:49;;;;;;;;;11.00;10.00;26.50;51.70;;;;;;111218;1238;50516;-66
2023/06/11 00:53:18;;;;;;;;;13.00;11.00;26.40;51.60;;;;;;111240;1239;49135;-65
2023/06/11 00:55:46;;;;;;;;;11.75;10.50;26.40;51.60;;;;;;111225;1239;55415;-65
2023/06/11 00:58:15;;;;;;;;;12.50;11.50;26.40;51.60;;;;;;111407;1243;44786;-65
2023/06/11 01:00:44;;;;;;;;;13.00;11.00;26.40;51.80;;;;;;111178;1241;49177;-64
2023/06/11 01:03:17;;;;;;;;;13.00;11.50;26.40;51.60;;;;;;111467;1238;49258;-65
2023/06/11 01:05:49;;;;;;;;;11.00;9.75;26.40;51.60;;;;;;111415;1237;53645;-66
2023/06/11 01:08:17;;;;;;;;;11.75;10.75;26.40;51.70;;;;;;111250;1243;45282;-65
2023/06/11 01:10:44;;;;;;;;;12.67;11.67;26.40;51.50;;;;;;111159;1238;49232;-65
2023/06/11 01:13:11;;;;;;;;;12.75;11.75;26.40;51.50;;;;;;111253;1240;49204;-65
2023/06/11 01:15:38;;;;;;;;;12.50;11.50;26.40;51.70;;;;;;111257;1243;53794;-65
2023/06/11 01:18:12;;;;;;;;;13.75;12.50;26.40;52.10;;;;;;111317;1244;44972;-65
2023/06/11 01:20:42;;;;;;;;;10.50;9.25;26.40;51.50;;;;;;111539;1238;50397;-65
2023/06/11 01:23:24;;;;;;;;;11.00;10.00;26.40;51.50;;;;;;110885;1245;679784;-65
2023/06/11 01:25:51;;;;;;;;;13.25;12.75;26.40;51.60;;;;;;111364;1238;53568;-65
2023/06/11 01:28:21;;;;;;;;;12.00;11.00;26.40;51.60;;;;;;111283;1238;44245;-65
2023/06/11 01:30:50;;;;;;;;;12.75;10.50;26.40;51.50;;;;;;111249;1243;48919;-65
2023/06/11 01:33:24;;;;;;;;;12.00;11.00;26.40;51.50;;;;;;111411;1238;49736;-65
2023/06/11 01:35:52;;;;;;;;;12.50;11.50;26.30;51.50;;;;;;111231;1238;54857;-65
2023/06/11 01:38:21;;;;;;;;;11.00;10.00;26.30;51.50;;;;;;111536;1241;44506;-65
2023/06/11 01:40:48;;;;;;;;;11.00;10.25;26.40;51.50;;;;;;111271;1238;50000;-65
2023/06/11 01:43:15;;;;;;;;;12.50;11.50;26.30;51.40;;;;;;111207;1243;50512;-64
2023/06/11 01:45:43;;;;;;;;;11.25;10.25;26.30;51.50;;;;;;111349;1243;54165;-65
2023/06/11 01:48:10;;;;;;;;;11.00;10.00;26.30;51.50;;;;;;111435;1241;45404;-64
2023/06/11 01:50:37;;;;;;;;;10.00;9.00;26.30;51.50;;;;;;111390;1238;49412;-64
2023/06/11 01:53:03;;;;;;;;;13.67;10.33;26.30;51.70;;;;;;111422;1238;49361;-65
2023/06/11 01:55:30;;;;;;;;;13.00;12.00;26.30;51.80;;;;;;111310;1239;53806;-65
2023/06/11 01:57:57;;;;;;;;;15.00;13.75;26.30;51.80;;;;;;111448;1243;45533;-65
2023/06/11 02:00:24;;;;;;;;;11.00;10.00;26.30;51.80;;;;;;111465;1241;48961;-65
2023/06/11 02:02:51;;;;;;;;;12.00;11.00;26.20;51.50;;;;;;111428;1242;49049;-64
2023/06/11 02:05:18;;;;;;;;;13.00;10.33;26.20;51.50;;;;;;111391;1238;54778;-65
2023/06/11 02:07:45;;;;;;;;;12.00;11.00;26.20;51.60;;;;;;111179;1243;44554;-64
2023/06/11 02:10:12;;;;;;;;;12.00;8.75;26.20;51.50;;;;;;111189;1240;50520;-66
2023/06/11 02:12:39;;;;;;;;;12.67;11.67;26.20;51.50;;;;;;111296;1243;49906;-68
2023/06/11 02:15:07;;;;;;;;;12.33;11.33;26.20;51.50;;;;;;111477;1238;53650;-64
2023/06/11 02:17:34;;;;;;;;;11.25;10.25;26.20;51.60;;;;;;111277;1243;45488;-65
2023/06/11 02:20:05;;;;;;;;;11.25;10.25;26.20;51.50;;;;;;111305;1240;49315;-67
2023/06/11 02:22:33;;;;;;;;;13.33;12.33;26.20;51.50;;;;;;111422;1243;49334;-64
2023/06/11 02:25:01;;;;;;;;;12.75;11.75;26.20;51.00;;;;;;111268;1239;53434;-64
2023/06/11 02:27:29;;;;;;;;;11.75;10.75;26.20;51.70;;;;;;111326;1243;44725;-64
2023/06/11 02:29:57;;;;;;;;;11.00;10.00;26.20;51.50;;;;;;111241;1238;49348;-64
2023/06/11 02:32:24;;;;;;;;;13.75;12.75;26.20;51.40;;;;;;111468;1238;49131;-64
2023/06/11 02:34:51;;;;;;;;;12.00;11.33;26.20;51.70;;;;;;111332;1238;53243;-64
2023/06/11 02:37:18;;;;;;;;;12.00;11.00;26.20;51.50;;;;;;111332;1241;44729;-64
2023/06/11 02:39:45;;;;;;;;;13.00;11.00;26.20;51.50;;;;;;111476;1239;49221;-66
2023/06/11 02:42:12;;;;;;;;;11.00;9.33;26.20;51.40;;;;;;111381;1243;49912;-64
2023/06/11 02:44:39;;;;;;;;;12.00;11.00;26.20;51.30;;;;;;111315;1242;53974;-65
2023/06/11 02:47:06;;;;;;;;;14.00;12.00;26.20;51.50;;;;;;111420;1237;45562;-65
2023/06/11 02:49:34;;;;;;;;;11.00;10.00;26.20;51.50;;;;;;111460;1238;49594;-65
2023/06/11 02:52:01;;;;;;;;;11.25;10.25;26.10;51.40;;;;;;111443;1237;50207;-64
2023/06/11 02:54:28;;;;;;;;;13.00;12.00;26.20;51.50;;;;;;111288;1242;54562;-65
2023/06/11 02:56:55;;;;;;;;;14.50;13.00;26.10;51.50;;;;;;111412;1241;44281;-65
2023/06/11 02:59:22;;;;;;;;;12.00;11.00;26.10;51.70;;;;;;111262;1244;49498;-64
2023/06/11 03:01:49;;;;;;;;;13.00;10.00;26.10;51.60;;;;;;111302;1242;49765;-64
2023/06/11 03:04:16;;;;;;;;;13.25;12.25;26.10;51.50;;;;;;111470;1240;53759;-64
2023/06/11 03:06:42;;;;;;;;;12.75;11.75;26.10;51.50;;;;;;111463;1240;45746;-64
2023/06/11 03:09:10;;;;;;;;;11.00;10.00;26.10;51.50;;;;;;111227;1240;49409;-64
2023/06/11 03:11:36;;;;;;;;;11.00;10.00;26.10;51.40;;;;;;111258;1238;49298;-65
2023/06/11 03:14:03;;;;;;;;;11.00;10.00;26.10;51.40;;;;;;111431;1238;54539;-65
2023/06/11 03:16:30;;;;;;;;;11.00;10.00;26.10;51.40;;;;;;111220;1244;45097;-65
2023/06/11 03:18:57;;;;;;;;;13.00;12.00;26.10;51.50;;;;;;111238;1244;50341;-65
2023/06/11 03:21:24;;;;;;;;;11.00;10.00;26.10;51.40;;;;;;111306;1244;49977;-65
2023/06/11 03:23:51;;;;;;;;;13.75;11.00;26.10;51.40;;;;;;111338;1244;53780;-65
2023/06/11 03:26:18;;;;;;;;;10.50;9.25;26.00;51.60;;;;;;111297;1242;44348;-64
2023/06/11 03:28:45;;;;;;;;;12.00;11.00;26.00;51.40;;;;;;111324;1244;49134;-66
2023/06/11 03:31:12;;;;;;;;;11.75;11.00;26.00;51.50;;;;;;111494;1240;48967;-66
2023/06/11 03:33:39;;;;;;;;;14.00;11.00;26.00;51.40;;;;;;111237;1241;53306;-67
2023/06/11 03:36:06;;;;;;;;;13.25;11.00;26.00;51.40;;;;;;111290;1241;44343;-66
2023/06/11 03:38:33;;;;;;;;;13.50;11.00;26.00;51.70;;;;;;111219;1242;49930;-64
2023/06/11 03:41:00;;;;;;;;;13.33;10.67;26.00;51.50;;;;;;111210;1242;49551;-65
2023/06/11 03:43:27;;;;;;;;;13.00;11.67;26.00;51.50;;;;;;111181;1240;54882;-65
2023/06/11 03:45:53;;;;;;;;;11.75;10.75;25.90;51.40;;;;;;111248;1240;45548;-65
2023/06/11 03:48:20;;;;;;;;;11.00;10.00;25.90;51.50;;;;;;111196;1244;49576;-65
2023/06/11 03:50:47;;;;;;;;;11.50;10.00;25.90;51.50;;;;;;111180;1243;49532;-64
2023/06/11 03:53:14;;;;;;;;;13.00;12.00;25.90;51.50;;;;;;111212;1241;53667;-65
2023/06/11 03:55:43;;;;;;;;;12.67;11.67;25.90;51.50;;;;;;111257;1239;44809;-65
2023/06/11 03:58:10;;;;;;;;;9.75;8.75;25.90;51.70;;;;;;111504;1240;49991;-68
2023/06/11 04:00:37;;;;;;;;;12.00;11.00;25.90;51.50;;;;;;111384;1240;49343;-66
2023/06/11 04:03:03;;;;;;;;;14.00;10.00;25.90;51.60;;;;;;111478;1239;53398;-65
2023/06/11 04:05:36;;;;;;;;;11.75;10.75;25.90;51.50;;;;;;111393;1244;44464;-65
2023/06/11 04:08:04;;;;;;;;;11.00;10.00;25.90;51.70;;;;;;111274;1244;49615;-64
2023/06/11 04:10:32;;;;;;;;;12.25;11.00;25.90;51.60;;;;;;111214;1240;49264;-64
2023/06/11 04:12:59;;;;;;;;;14.50;12.00;25.90;51.60;;;;;;111233;1241;53495;-65
2023/06/11 04:15:26;;;;;;;;;13.00;10.67;25.80;51.50;;;;;;111231;1244;45355;-64
2023/06/11 04:17:52;;;;;;;;;11.67;10.67;25.80;51.60;;;;;;111206;1238;48877;-65
2023/06/11 04:20:19;;;;;;;;;12.67;10.00;25.80;51.50;;;;;;111205;1244;49030;-64
2023/06/11 04:22:46;;;;;;;;;11.75;10.00;25.80;51.50;;;;;;111235;1244;53716;-64
2023/06/11 04:25:13;;;;;;;;;14.00;11.75;25.80;51.80;;;;;;111253;1240;45671;-65
2023/06/11 04:27:41;;;;;;;;;12.50;11.75;25.80;51.60;;;;;;111244;1244;48883;-64
2023/06/11 04:30:09;;;;;;;;;11.75;10.75;25.80;51.60;;;;;;111274;1240;49583;-65
2023/06/11 04:32:36;;;;;;;;;12.50;11.50;25.80;51.50;;;;;;111245;1240;53533;-65
2023/06/11 04:35:04;;;;;;;;;11.75;11.00;25.80;51.50;;;;;;111310;1244;44419;-64
2023/06/11 04:37:38;;;;;;;;;12.00;10.67;25.80;51.50;;;;;;111252;1240;49225;-64
2023/06/11 04:40:10;;;;;;;;;14.00;11.75;25.80;51.50;;;;;;111274;1238;48996;-65
2023/06/11 04:42:41;;;;;;;;;10.00;9.00;25.80;51.70;;;;;;111246;1244;53287;-65
2023/06/11 04:45:09;;;;;;;;;12.00;11.00;25.80;51.50;;;;;;111324;1244;45079;-65
2023/06/11 04:47:37;;;;;;;;;11.00;9.75;25.80;51.80;;;;;;111455;1244;49062;-65
2023/06/11 04:50:05;;;;;;;;;12.67;11.33;25.80;51.50;;;;;;111303;1244;50499;-65
2023/06/11 04:52:35;;;;;;;;;11.50;10.25;25.80;51.50;;;;;;111214;1240;53737;-64
2023/06/11 04:55:03;;;;;;;;;10.50;9.25;25.80;51.60;;;;;;111280;1239;44144;-65
2023/06/11 04:57:33;;;;;;;;;12.50;11.50;25.80;51.60;;;;;;111279;1241;49560;-65
2023/06/11 05:00:02;;;;;;;;;13.00;10.00;25.80;51.80;;;;;;111204;1244;49682;-65
2023/06/11 05:02:29;;;;;;;;;11.75;10.75;25.80;51.60;;;;;;111167;1244;53504;-63
2023/06/11 05:04:57;;;;;;;;;12.00;11.00;25.80;51.60;;;;;;111377;1244;44563;-65
2023/06/11 05:07:24;;;;;;;;;10.75;9.75;25.80;51.60;;;;;;111352;1244;49949;-65
2023/06/11 05:09:51;;;;;;;;;12.00;11.00;25.80;51.10;;;;;;111231;1239;49594;-65
2023/06/11 05:12:18;;;;;;;;;11.00;10.00;25.80;51.70;;;;;;111210;1240;54128;-64
2023/06/11 05:14:45;;;;;;;;;11.75;10.25;25.80;51.50;;;;;;111231;1241;44290;-66
2023/06/11 05:17:12;;;;;;;;;11.00;10.00;25.80;51.60;;;;;;111289;1238;49347;-65
2023/06/11 05:19:39;;;;;;;;;12.00;11.00;25.80;51.60;;;;;;111241;1244;49247;-65
2023/06/11 05:22:06;;;;;;;;;10.00;9.00;25.80;51.60;;;;;;111267;1241;54739;-65
2023/06/11 05:24:33;;;;;;;;;13.25;10.75;25.80;51.40;;;;;;111215;1244;44627;-65
2023/06/11 05:27:01;;;;;;;;;11.25;10.00;25.80;51.50;;;;;;111279;1240;48905;-65
2023/06/11 05:29:28;;;;;;;;;12.75;11.75;25.80;51.50;;;;;;111257;1244;50226;-64
2023/06/11 05:31:56;;;;;;;;;11.75;10.75;25.90;51.60;;;;;;111198;1244;54925;-65
2023/06/11 05:34:25;;;;;;;;;13.50;12.25;25.90;51.60;;;;;;111201;1244;45196;-64
2023/06/11 05:36:52;;;;;;;;;13.00;12.00;25.90;51.50;;;;;;111238;1240;49271;-64
2023/06/11 05:39:20;;;;;;;;;11.00;10.00;25.90;51.50;;;;;;111346;1240;49513;-65
2023/06/11 05:41:47;;;;;;;;;11.00;10.00;25.90;51.50;;;;;;111204;1243;53413;-64
2023/06/11 05:44:16;;;;;;;;;10.75;9.50;25.90;51.50;;;;;;111220;1243;44294;-65
2023/06/11 05:46:42;;;;;;;;;11.00;10.00;25.90;51.50;;;;;;111260;1244;49817;-64
2023/06/11 05:49:09;;;;;;;;;10.33;9.33;25.90;51.50;;;;;;111335;1243;49705;-63
2023/06/11 05:51:37;;;;;;;;;11.00;10.00;25.90;51.70;;;;;;111223;1244;54622;-64
2023/06/11 05:54:04;;;;;;;;;14.00;11.00;25.90;51.70;;;;;;111218;1244;44830;-64
2023/06/11 05:56:31;;;;;;;;;10.75;9.75;25.90;51.50;;;;;;111170;1244;49707;-65
2023/06/11 05:58:58;;;;;;;;;14.00;12.75;25.90;51.50;;;;;;111187;1244;49264;-65
2023/06/11 06:01:25;;;;;;;;;12.00;11.00;25.90;51.50;;;;;;111143;1244;55350;-65
2023/06/11 06:03:52;;;;;;;;;11.75;10.75;25.90;51.50;;;;;;111214;1240;44386;-64
2023/06/11 06:06:19;;;;;;;;;13.00;10.33;25.90;51.80;;;;;;111543;1244;49677;-64
2023/06/11 06:08:46;;;;;;;;;11.00;10.00;25.90;51.60;;;;;;111189;1244;50554;-64
2023/06/11 06:11:13;;;;;;;;;11.75;10.75;25.90;51.50;;;;;;111297;1244;53571;-65
2023/06/11 06:13:40;;;;;;;;;11.67;10.67;25.90;51.70;;;;;;111250;1240;44106;-64
2023/06/11 06:16:07;;;;;;;;;11.75;10.00;25.90;51.70;;;;;;111195;1241;49372;-64
2023/06/11 06:18:34;;;;;;;;;13.25;12.25;25.90;51.80;;;;;;111412;1240;49535;-64
2023/06/11 06:21:01;;;;;;;;;11.00;10.00;25.90;51.60;;;;;;111297;1239;53755;-65
2023/06/11 06:23:28;;;;;;;;;12.25;10.00;25.90;51.80;;;;;;111210;1244;45014;-64
2023/06/11 06:25:55;;;;;;;;;11.00;9.75;25.90;51.60;;;;;;111267;1238;49543;-64
2023/06/11 06:28:23;;;;;;;;;13.00;10.00;25.90;51.80;;;;;;111318;1238;49414;-65
2023/06/11 06:30:49;;;;;;;;;11.00;10.00;26.00;51.80;;;;;;111393;1238;53739;-65
2023/06/11 06:33:16;;;;;;;;;11.00;10.00;26.00;51.60;;;;;;111388;1243;44827;-65
2023/06/11 06:35:43;;;;;;;;;12.50;11.75;26.00;51.60;;;;;;111404;1243;49099;-64
2023/06/11 06:38:10;;;;;;;;;12.75;11.75;26.00;51.70;;;;;;111323;1238;49494;-65
2023/06/11 06:40:37;;;;;;;;;11.00;10.00;26.00;51.90;;;;;;111223;1238;54196;-65
2023/06/11 06:43:04;;;;;;;;;11.75;10.00;26.00;51.70;;;;;;111223;1243;45026;-65
2023/06/11 06:45:33;;;;;;;;;13.67;12.67;26.00;51.80;;;;;;111362;1241;49512;-68
2023/06/11 06:48:01;;;;;;;;;12.00;11.00;26.00;51.70;;;;;;111217;1243;49193;-65
2023/06/11 06:50:28;;;;;;;;;11.67;9.33;26.00;51.70;;;;;;111281;1238;54032;-63
2023/06/11 06:52:55;;;;;;;;;14.00;11.00;26.00;51.80;;;;;;111474;1238;44951;-66
2023/06/11 06:55:22;;;;;;;;;12.00;11.00;26.00;52.10;;;;;;111236;1240;49748;-64
2023/06/11 06:57:49;;;;;;;;;13.00;11.50;26.00;51.70;;;;;;111304;1243;49509;-65
2023/06/11 07:00:17;;;;;;;;;12.00;11.00;26.00;51.60;;;;;;111387;1238;53901;-65
2023/06/11 07:02:44;;;;;;;;;11.00;10.00;26.00;51.60;;;;;;111510;1238;44155;-64
2023/06/11 07:05:12;;;;;;;;;12.50;11.25;26.10;51.90;;;;;;111444;1241;49624;-65
2023/06/11 07:07:40;;;;;;;;;10.67;9.67;26.10;51.70;;;;;;111237;1240;49581;-64
2023/06/11 07:10:08;;;;;;;;;11.50;10.25;26.10;51.60;;;;;;111276;1243;53800;-65
2023/06/11 07:12:35;;;;;;;;;11.00;10.00;26.10;51.60;;;;;;111355;1243;44466;-67
2023/06/11 07:15:03;;;;;;;;;10.67;9.67;26.10;52.10;;;;;;111390;1238;49618;-64
2023/06/11 07:17:30;;;;;;;;;12.67;10.67;26.10;51.60;;;;;;111347;1240;50106;-63
2023/06/11 07:19:56;;;;;;;;;10.00;9.00;26.20;51.70;;;;;;111354;1238;54832;-64
2023/06/11 07:22:23;;;;;;;;;11.00;10.00;26.20;51.70;;;;;;111494;1238;44961;-64
2023/06/11 07:24:50;;;;;;;;;11.67;11.00;26.20;51.70;;;;;;111230;1238;49524;-64
2023/06/11 07:27:17;;;;;;;;;12.00;11.00;26.20;51.90;;;;;;111213;1243;50418;-64
2023/06/11 07:29:44;;;;;;;;;13.00;12.00;26.20;51.60;;;;;;111284;1241;54076;-64
2023/06/11 07:32:11;;;;;;;;;11.00;10.00;26.30;51.70;;;;;;111386;1238;45707;-65
2023/06/11 07:34:39;;;;;;;;;12.75;11.75;26.30;51.70;;;;;;111338;1239;49047;-63
2023/06/11 07:37:06;;;;;;;;;11.00;10.00;26.30;51.90;;;;;;111242;1244;49646;-64
2023/06/11 07:39:33;;;;;;;;;10.00;8.75;26.30;51.60;;;;;;111366;1238;53947;-65
2023/06/11 07:42:00;;;;;;;;;11.67;10.67;26.40;51.70;;;;;;111207;1238;44957;-65
2023/06/11 07:44:27;;;;;;;;;10.75;9.25;26.30;51.60;;;;;;111251;1240;49960;-65
2023/06/11 07:46:54;;;;;;;;;12.00;11.00;26.40;51.70;;;;;;111215;1243;49571;-64
2023/06/11 07:49:21;;;;;;;;;11.00;10.00;26.40;51.50;;;;;;111462;1241;53907;-64
2023/06/11 07:51:48;;;;;;;;;11.00;10.00;26.50;51.70;;;;;;111353;1238;45903;-64
2023/06/11 07:54:15;;;;;;;;;11.75;10.75;26.50;51.70;;;;;;111494;1238;48945;-64
2023/06/11 07:56:41;;;;;;;;;11.50;10.25;26.50;51.90;;;;;;111263;1243;49534;-64
2023/06/11 07:59:08;;;;;;;;;13.00;11.75;26.50;51.70;;;;;;111399;1241;53876;-64
2023/06/11 08:01:36;;;;;;;;;10.25;9.00;26.50;51.60;;;;;;111383;1241;44879;-65
2023/06/11 08:04:03;;;;;;;;;12.00;11.33;26.50;51.70;;;;;;111229;1240;49465;-63
2023/06/11 08:06:30;;;;;;;;;10.75;9.75;26.50;52.10;;;;;;111311;1243;49791;-64
2023/06/11 08:08:57;;;;;;;;;10.00;9.00;26.60;51.60;;;;;;111200;1243;54273;-64
2023/06/11 08:11:24;;;;;;;;;10.75;9.75;26.60;51.60;;;;;;111320;1243;44461;-63
2023/06/11 08:13:51;;;;;;;;;11.00;10.00;26.60;51.80;;;;;;111234;1240;49745;-64
2023/06/11 08:16:18;;;;;;;;;11.00;10.00;26.70;51.60;;;;;;111439;1241;49299;-64
2023/06/11 08:18:45;;;;;;;;;10.00;9.00;26.70;51.60;;;;;;111374;1243;53190;-64
2023/06/11 08:21:12;;;;;;;;;10.00;8.75;26.70;52.10;;;;;;111289;1239;44223;-65
2023/06/11 08:23:39;;;;;;;;;13.00;12.00;26.80;51.80;;;;;;111419;1241;49821;-63
2023/06/11 08:26:06;;;;;;;;;12.00;11.00;26.80;51.50;;;;;;111247;1243;49305;-63
2023/06/11 08:28:35;;;;;;;;;11.25;10.00;26.80;51.80;;;;;;111201;1238;53676;-64
2023/06/11 08:31:02;;;;;;;;;11.00;10.00;26.90;51.10;;;;;;111239;1241;45127;-63
2023/06/11 08:33:29;;;;;;;;;12.00;10.67;26.90;51.50;;;;;;111293;1244;49317;-64
2023/06/11 08:35:56;;;;;;;;;11.25;8.00;26.90;51.50;;;;;;111354;1239;49877;-64
2023/06/11 08:38:27;;;;;;;;;10.25;8.75;26.90;51.50;;;;;;111428;1244;53106;-64
2023/06/11 08:40:55;;;;;;;;;12.00;9.33;27.00;51.00;;;;;;111439;1238;44495;-64
2023/06/11 08:43:23;;;;;;;;;11.33;10.33;27.00;51.40;;;;;;111386;1241;49546;-64
2023/06/11 08:45:51;;;;;;;;;10.67;9.33;27.10;51.50;;;;;;111399;1238;49230;-64
2023/06/11 08:48:23;;;;;;;;;11.25;10.00;27.10;51.40;;;;;;111416;1239;54123;-64
2023/06/11 08:50:50;;;;;;;;;10.00;9.00;27.10;51.40;;;;;;111336;1243;44701;-64
2023/06/11 08:53:19;;;;;;;;;11.50;10.50;27.20;51.40;;;;;;111216;1241;48944;-64
2023/06/11 08:55:48;;;;;;;;;10.33;9.00;27.20;51.60;;;;;;111407;1241;49183;-64
2023/06/11 08:58:15;;;;;;;;;11.75;10.25;27.20;51.30;;;;;;111260;1238;53937;-64
2023/06/11 09:00:42;;;;;;;;;11.00;10.00;27.30;51.30;;;;;;111344;1242;44836;-64
2023/06/11 09:03:10;;;;;;;;;10.00;9.00;27.30;51.30;;;;;;111308;1241;49364;-63
2023/06/11 09:05:38;;;;;;;;;12.25;10.75;27.30;51.30;;;;;;111448;1238;49823;-63
2023/06/11 09:08:09;;;;;;;;;12.00;11.00;27.40;51.30;;;;;;111396;1239;53723;-63
2023/06/11 09:10:50;;;;;;;;;11.00;9.67;27.40;51.40;;;;;;111410;1243;44921;-62
2023/06/11 09:13:18;;;;;;;;;12.75;11.75;27.40;51.20;;;;;;111415;1241;49068;-64
2023/06/11 09:15:49;;;;;;;;;12.00;9.00;27.50;51.20;;;;;;111345;1241;49341;-64
2023/06/11 09:18:21;;;;;;;;;11.00;9.00;27.50;51.40;;;;;;111301;1238;53610;-64
2023/06/11 09:20:50;;;;;;;;;11.50;9.00;27.50;51.10;;;;;;111413;1238;45045;-64
2023/06/11 09:23:25;;;;;;;;;9.67;8.67;27.60;51.10;;;;;;111388;1240;49293;-64
2023/06/11 09:25:52;;;;;;;;;10.00;9.00;27.60;51.10;;;;;;111391;1238;49776;-64
2023/06/11 09:28:20;;;;;;;;;9.25;8.25;27.70;51.10;;;;;;111230;1243;53297;-64
2023/06/11 09:30:56;;;;;;;;;11.00;10.00;27.70;51.10;;;;;;111198;1240;44570;-64
2023/06/11 09:33:24;;;;;;;;;10.75;9.75;27.70;51.00;;;;;;111430;1244;48849;-65
2023/06/11 09:35:51;;;;;;;;;10.75;9.75;27.70;51.20;;;;;;111303;1241;49427;-66
2023/06/11 09:38:19;;;;;;;;;10.75;9.75;27.80;51.00;;;;;;111318;1240;53360;-66
2023/06/11 09:40:48;;;;;;;;;11.25;10.00;27.80;51.20;;;;;;111231;1244;45088;-65
2023/06/11 09:43:21;;;;;;;;;12.00;10.00;27.80;50.90;;;;;;111244;1244;49870;-63
2023/06/11 09:45:55;;;;;;;;;12.00;11.00;27.90;51.00;;;;;;111250;1240;49445;-63
2023/06/11 09:48:23;;;;;;;;;10.75;9.00;27.90;50.90;;;;;;111233;1241;54534;-65
2023/06/11 09:50:52;;;;;;;;;10.00;9.00;28.00;50.90;;;;;;111259;1238;45828;-63
2023/06/11 09:53:21;;;;;;;;;11.00;10.00;28.00;50.90;;;;;;111263;1238;49030;-64
2023/06/11 09:55:50;;;;;;;;;11.33;10.33;28.00;50.90;;;;;;111245;1244;49065;-64
2023/06/11 09:58:21;;;;;;;;;11.00;9.50;28.10;50.60;;;;;;111229;1238;54151;-64
2023/06/11 10:01:00;;;;;;;;;11.75;10.25;28.10;50.80;;;;;;111215;1244;44938;-64
2023/06/11 10:03:28;;;;;;;;;10.75;9.75;28.10;50.70;;;;;;111222;1243;50095;-65
2023/06/11 10:05:55;;;;;;;;;10.00;8.75;28.20;50.70;;;;;;111251;1238;49122;-64
2023/06/11 10:08:29;;;;;;;;;9.75;8.75;28.20;50.80;;;;;;111321;1241;54181;-65
2023/06/11 10:11:00;;;;;;;;;9.50;8.25;28.20;50.60;;;;;;111447;1244;44079;-68
2023/06/11 10:13:32;;;;;;;;;10.00;8.67;28.30;50.70;;;;;;111130;1244;49103;-63
2023/06/11 10:16:03;;;;;;;;;11.50;10.50;28.30;50.70;;;;;;111262;1243;49347;-64
2023/06/11 10:18:30;;;;;;;;;10.75;9.75;28.30;50.60;;;;;;111251;1244;53887;-64
2023/06/11 10:21:00;;;;;;;;;9.00;8.00;28.30;50.50;;;;;;111214;1239;44923;-65
2023/06/11 10:23:40;;;;;;;;;10.00;9.00;28.40;50.60;;;;;;111231;1243;48631;-64
2023/06/11 10:26:09;;;;;;;;;10.00;9.00;28.40;50.60;;;;;;111258;1240;48609;-64
2023/06/11 10:28:51;;;;;;;;;10.75;9.75;28.40;50.70;;;;;;111284;1239;54115;-64
2023/06/11 10:31:25;;;;;;;;;10.25;9.00;28.40;50.60;;;;;;111295;1243;45007;-63
2023/06/11 10:34:00;;;;;;;;;10.33;9.00;28.40;50.60;;;;;;111389;1241;49657;-64
2023/06/11 10:36:36;;;;;;;;;12.00;10.00;28.50;50.50;;;;;;111560;1243;49825;-65
2023/06/11 10:39:20;;;;;;;;;11.00;10.00;28.50;50.50;;;;;;111214;1243;53610;-64
2023/06/11 10:41:47;;;;;;;;;11.00;10.00;28.50;50.40;;;;;;111220;1238;44757;-64
2023/06/11 10:44:15;;;;;;;;;9.75;8.75;28.50;50.50;;;;;;111409;1238;49483;-64
2023/06/11 10:46:46;;;;;;;;;11.67;10.67;28.60;50.50;;;;;;111222;1243;49879;-64
2023/06/11 10:49:17;;;;;;;;;11.67;10.67;28.50;50.30;;;;;;111399;1242;53532;-64
2023/06/11 10:51:46;;;;;;;;;10.00;9.00;28.60;50.40;;;;;;111537;1241;44628;-64
2023/06/11 10:54:26;;;;;;;;;11.25;10.25;28.60;50.30;;;;;;111353;1239;50229;-64
2023/06/11 10:56:54;;;;;;;;;10.00;8.50;28.60;50.30;;;;;;111315;1243;49794;-63
2023/06/11 10:59:21;;;;;;;;;12.00;11.00;28.60;50.30;;;;;;111531;1243;53440;-65
2023/06/11 11:01:55;;;;;;;;;11.00;10.00;28.60;49.80;;;;;;111324;1243;44984;-64
2023/06/11 11:04:22;;;;;;;;;11.75;10.75;28.60;50.30;;;;;;111219;1243;49356;-64
2023/06/11 11:06:52;;;;;;;;;10.75;9.75;28.60;50.30;;;;;;111320;1238;49348;-63
2023/06/11 11:09:22;;;;;;;;;11.00;10.00;28.60;50.50;;;;;;111453;1241;53707;-64
2023/06/11 11:11:52;;;;;;;;;11.00;10.00;28.60;50.30;;;;;;111234;1238;45119;-64
2023/06/11 11:14:20;;;;;;;;;10.75;10.00;28.60;50.30;;;;;;111259;1243;49558;-64
2023/06/11 11:16:47;;;;;;;;;9.00;8.00;28.60;50.30;;;;;;111202;1244;49996;-64
2023/06/11 11:19:14;;;;;;;;;11.75;10.50;28.60;50.20;;;;;;111216;1243;53737;-65
2023/06/11 11:21:50;;;;;;;;;10.00;9.00;28.70;50.50;;;;;;111261;1240;45040;-64
2023/06/11 11:24:18;;;;;;;;;9.00;8.00;28.60;50.20;;;;;;111231;1243;50051;-62
2023/06/11 11:26:45;;;;;;;;;13.67;11.67;28.60;50.20;;;;;;111336;1240;49520;-63
2023/06/11 11:29:13;;;;;;;;;10.00;9.00;28.70;50.30;;;;;;111366;1239;54106;-64
2023/06/11 11:31:41;;;;;;;;;11.75;10.75;28.70;50.40;;;;;;111286;1244;45069;-65
2023/06/11 11:34:08;;;;;;;;;12.25;10.00;28.70;50.50;;;;;;111132;1244;48879;-63
2023/06/11 11:36:35;;;;;;;;;11.00;9.00;28.70;50.40;;;;;;111244;1244;49202;-63
2023/06/11 11:39:13;;;;;;;;;11.00;9.67;28.70;50.20;;;;;;111284;1240;53652;-64
2023/06/11 11:41:45;;;;;;;;;9.00;8.00;28.70;50.40;;;;;;111276;1243;44509;-64
2023/06/11 11:44:14;;;;;;;;;12.50;10.00;28.70;50.20;;;;;;111240;1240;48766;-64
2023/06/11 11:46:41;;;;;;;;;12.00;9.00;28.70;50.30;;;;;;111334;1241;49494;-65
2023/06/11 11:49:09;;;;;;;;;10.67;8.33;28.70;50.20;;;;;;111207;1242;53553;-65
2023/06/11 11:51:45;;;;;;;;;12.25;11.25;28.70;50.30;;;;;;111210;1244;45111;-64
2023/06/11 11:54:13;;;;;;;;;11.33;10.33;28.70;50.20;;;;;;111205;1244;49592;-64
2023/06/11 11:56:41;;;;;;;;;11.75;10.75;28.70;50.30;;;;;;111245;1240;50147;-64
2023/06/11 11:59:19;;;;;;;;;10.00;8.50;28.70;50.20;;;;;;111254;1240;54264;-63
2023/06/11 12:01:56;;;;;;;;;10.00;9.00;28.70;50.20;;;;;;111227;1240;44741;-64
2023/06/11 12:04:40;;;;;;;;;9.00;8.00;28.70;50.20;;;;;;111235;1240;49164;-64
2023/06/11 12:07:15;;;;;;;;;11.00;9.75;28.70;50.30;;;;;;111183;1241;49460;-64
2023/06/11 12:09:42;;;;;;;;;13.00;11.00;28.70;50.20;;;;;;111179;1244;53544;-64
2023/06/11 12:12:10;;;;;;;;;11.75;10.75;28.70;50.40;;;;;;111315;1238;44839;-65
2023/06/11 12:14:37;;;;;;;;;10.50;9.00;28.70;50.40;;;;;;111368;1244;49580;-63
2023/06/11 12:17:10;;;;;;;;;10.00;9.00;28.70;50.50;;;;;;111218;1244;49236;-63
2023/06/11 12:19:37;;;;;;;;;10.00;9.00;28.70;50.20;;;;;;111201;1244;53931;-62
2023/06/11 12:22:05;;;;;;;;;11.00;10.00;28.70;50.20;;;;;;111264;1243;44895;-64
2023/06/11 12:24:32;;;;;;;;;11.50;10.25;28.70;50.30;;;;;;111251;1243;49062;-64
2023/06/11 12:26:59;;;;;;;;;11.00;10.00;28.70;50.30;;;;;;111217;1243;49896;-64